Time;durP1;ratioP1;P1;durP2;ratioP2;P2;SDS_P1;SDS_P2;PMS_P1;PMS_P2;Temp;Humidity;BMP_temperature;BMP_pressure;BME280_temperature;BME280_humidity;BME280_pressure;Samples;Min_cycle;Max_cycle;Signal;HPM_P1;HPM_P2
2022/06/29 00:00:51;;;;;;;73.67;69.57;;;18.00;99.90;;;;;;5033221;28;20659;-77
2022/06/29 00:03:17;;;;;;;79.97;75.67;;;18.00;99.90;;;;;;5033358;28;20183;-77
2022/06/29 00:05:42;;;;;;;54.17;51.30;;;17.90;99.90;;;;;;5033285;28;20182;-77
2022/06/29 00:08:08;;;;;;;31.70;29.77;;;17.80;99.90;;;;;;5032298;28;20179;-78
2022/06/29 00:10:35;;;;;;;30.37;28.27;;;17.80;99.90;;;;;;5033031;28;20270;-77
2022/06/29 00:13:02;;;;;;;23.50;22.07;;;17.80;99.90;;;;;;5032046;28;20341;-78
2022/06/29 00:15:27;;;;;;;21.47;20.10;;;17.80;99.90;;;;;;5033592;28;20215;-77
2022/06/29 00:17:53;;;;;;;21.00;19.87;;;17.80;99.90;;;;;;5032564;28;20559;-77
2022/06/29 00:20:20;;;;;;;22.07;20.57;;;17.80;99.90;;;;;;5033617;28;20548;-77
2022/06/29 00:22:46;;;;;;;22.83;20.93;;;17.70;99.90;;;;;;5031656;28;20203;-78
2022/06/29 00:25:13;;;;;;;20.30;19.10;;;17.70;99.90;;;;;;5033114;28;20594;-78
2022/06/29 00:27:40;;;;;;;23.33;22.03;;;17.60;99.90;;;;;;5031120;28;20183;-78
2022/06/29 00:30:07;;;;;;;30.97;29.17;;;17.50;99.90;;;;;;5032516;28;20195;-78
2022/06/29 00:32:32;;;;;;;29.23;27.50;;;17.40;99.90;;;;;;5031433;28;20206;-78
2022/06/29 00:34:59;;;;;;;26.67;25.30;;;17.40;99.90;;;;;;5032630;28;20236;-78
2022/06/29 00:37:25;;;;;;;28.37;26.57;;;17.40;99.90;;;;;;5031725;28;20658;-77
2022/06/29 00:39:51;;;;;;;27.73;26.20;;;17.40;99.90;;;;;;5032455;28;20207;-77
2022/06/29 00:42:16;;;;;;;28.70;27.00;;;17.50;99.90;;;;;;5031366;28;20222;-78
2022/06/29 00:44:42;;;;;;;25.97;24.57;;;17.40;99.90;;;;;;5031407;28;20186;-78
2022/06/29 00:47:08;;;;;;;13.80;12.53;;;17.30;99.90;;;;;;5032024;28;20742;-78
2022/06/29 00:49:35;;;;;;;13.07;12.27;;;17.30;99.90;;;;;;5032225;28;20285;-77
2022/06/29 00:52:22;;;;;;;15.17;14.20;;;17.30;99.90;;;;;;5032117;28;20203;-78
2022/06/29 00:54:55;;;;;;;11.47;10.67;;;17.30;99.90;;;;;;5032205;28;20567;-78
2022/06/29 00:57:24;;;;;;;12.97;12.13;;;17.30;99.90;;;;;;5030332;28;20181;-77
2022/06/29 00:59:53;;;;;;;11.40;10.57;;;17.30;99.90;;;;;;5032231;28;20313;-77
2022/06/29 01:02:25;;;;;;;11.33;10.50;;;17.20;99.90;;;;;;5030645;28;20305;-77
2022/06/29 01:04:51;;;;;;;10.50;9.60;;;17.20;99.90;;;;;;5032332;28;20332;-77
2022/06/29 01:07:25;;;;;;;10.90;10.03;;;17.10;99.90;;;;;;5030107;28;20191;-77
2022/06/29 01:09:51;;;;;;;12.47;11.67;;;17.10;99.90;;;;;;5032000;28;20209;-78
2022/06/29 01:12:17;;;;;;;12.27;11.57;;;17.10;99.90;;;;;;5030623;28;20683;-78
2022/06/29 01:14:44;;;;;;;24.40;23.10;;;17.00;99.90;;;;;;5030827;28;20211;-77
2022/06/29 01:17:11;;;;;;;37.43;35.00;;;17.00;99.90;;;;;;5029899;28;20663;-77
2022/06/29 01:19:38;;;;;;;41.10;38.50;;;17.00;99.90;;;;;;5030685;28;20269;-77
2022/06/29 01:22:11;;;;;;;33.73;31.70;;;17.00;99.90;;;;;;5030496;28;20196;-78
2022/06/29 01:24:38;;;;;;;45.90;43.53;;;17.00;99.90;;;;;;5031598;28;20190;-78
2022/06/29 01:27:04;;;;;;;40.83;38.17;;;17.00;99.90;;;;;;5032702;28;20175;-77
2022/06/29 01:29:30;;;;;;;54.77;51.50;;;16.90;99.90;;;;;;5035108;28;20686;-77
2022/06/29 01:31:57;;;;;;;51.83;48.87;;;16.80;99.90;;;;;;5033838;28;20207;-77
2022/06/29 01:34:24;;;;;;;51.73;48.80;;;16.80;99.90;;;;;;5032683;28;20245;-77
2022/06/29 01:36:50;;;;;;;51.70;48.90;;;16.80;99.90;;;;;;5033537;28;20179;-77
2022/06/29 01:39:16;;;;;;;45.07;42.47;;;16.80;99.90;;;;;;5030678;28;20579;-77
2022/06/29 01:41:42;;;;;;;46.47;44.07;;;16.80;99.90;;;;;;5031202;28;20424;-77
2022/06/29 01:44:08;;;;;;;57.87;54.57;;;16.70;99.90;;;;;;5031460;28;20175;-76
2022/06/29 01:46:34;;;;;;;58.23;54.90;;;16.70;99.90;;;;;;5032193;28;20210;-77
2022/06/29 01:49:00;;;;;;;52.27;49.50;;;16.70;99.90;;;;;;5029235;28;20178;-77
2022/06/29 01:51:26;;;;;;;57.00;53.60;;;16.60;99.90;;;;;;5030739;28;20759;-76
2022/06/29 01:53:52;;;;;;;58.20;54.63;;;16.60;99.90;;;;;;5031143;28;20183;-77
2022/06/29 01:56:18;;;;;;;49.50;46.60;;;16.60;99.90;;;;;;5029908;28;20353;-77
2022/06/29 01:58:45;;;;;;;50.30;47.63;;;16.70;99.90;;;;;;5030317;28;20186;-76
2022/06/29 02:01:12;;;;;;;58.30;53.17;;;16.60;99.90;;;;;;5030997;28;20207;-77
2022/06/29 02:03:38;;;;;;;54.37;51.27;;;16.60;99.90;;;;;;5031629;28;20202;-77
2022/06/29 02:06:04;;;;;;;53.17;50.40;;;16.60;99.90;;;;;;5031105;28;20183;-76
2022/06/29 02:08:30;;;;;;;55.57;52.30;;;16.50;99.90;;;;;;5030118;28;20212;-77
2022/06/29 02:10:57;;;;;;;47.23;44.73;;;16.50;99.90;;;;;;5029860;28;20187;-76
2022/06/29 02:13:23;;;;;;;49.27;46.37;;;16.40;99.90;;;;;;5031124;28;20225;-78
2022/06/29 02:15:49;;;;;;;60.57;57.17;;;16.40;99.90;;;;;;5029928;28;20241;-77
2022/06/29 02:18:15;;;;;;;54.73;51.63;;;16.40;99.90;;;;;;5029140;28;20179;-78
2022/06/29 02:20:40;;;;;;;43.77;40.97;;;16.40;99.90;;;;;;5031065;28;20193;-77
2022/06/29 02:23:06;;;;;;;43.70;41.10;;;16.30;99.90;;;;;;5029441;28;20212;-76
2022/06/29 02:25:32;;;;;;;45.07;42.30;;;16.30;99.90;;;;;;5029759;28;20560;-77
2022/06/29 02:27:58;;;;;;;43.47;41.03;;;16.30;99.90;;;;;;5030074;28;20190;-77
2022/06/29 02:34:43;;;;;;;50.53;47.77;;;16.30;99.90;;;;;;5030986;28;20179;-76
2022/06/29 02:36:11;;;;;;;52.13;49.13;;;16.30;99.90;;;;;;5008501;28;20294;-77
2022/06/29 02:38:37;;;;;;;49.63;46.67;;;16.20;99.90;;;;;;5025555;28;20191;-76
2022/06/29 02:41:03;;;;;;;53.20;50.10;;;16.10;99.90;;;;;;5030833;28;20207;-76
2022/06/29 02:43:29;;;;;;;39.50;37.13;;;16.10;99.90;;;;;;5031273;28;20179;-77
2022/06/29 02:45:55;;;;;;;32.63;30.93;;;16.10;99.90;;;;;;5031440;28;20251;-77
2022/06/29 02:48:21;;;;;;;30.47;28.57;;;16.10;99.90;;;;;;5030317;28;20608;-76
2022/06/29 02:50:47;;;;;;;66.07;62.60;;;16.00;99.90;;;;;;5030796;28;20518;-76
2022/06/29 02:53:13;;;;;;;57.53;54.43;;;16.10;99.90;;;;;;5030579;28;20171;-76
2022/06/29 02:55:39;;;;;;;56.83;53.87;;;16.10;99.90;;;;;;5030561;28;20203;-76
2022/06/29 02:58:04;;;;;;;62.50;58.87;;;16.00;99.90;;;;;;5028576;28;20707;-77
2022/06/29 03:00:30;;;;;;;58.33;55.13;;;16.00;99.90;;;;;;5029585;28;20673;-76
2022/06/29 03:02:56;;;;;;;58.27;54.70;;;16.00;99.90;;;;;;5031622;28;20217;-77
2022/06/29 03:05:22;;;;;;;47.47;44.43;;;16.00;99.90;;;;;;5033407;28;20206;-76
2022/06/29 03:07:48;;;;;;;29.97;28.07;;;16.00;99.90;;;;;;5032294;28;20186;-76
2022/06/29 03:10:14;;;;;;;28.90;26.87;;;15.90;99.90;;;;;;5033232;28;20230;-76
2022/06/29 03:12:39;;;;;;;22.33;20.50;;;15.90;99.90;;;;;;5034403;28;20202;-76
2022/06/29 03:15:06;;;;;;;23.23;21.53;;;15.90;99.90;;;;;;5033358;28;20279;-76
2022/06/29 03:17:31;;;;;;;33.87;31.83;;;15.90;99.90;;;;;;5032343;28;20183;-76
2022/06/29 03:19:58;;;;;;;44.13;41.73;;;15.90;99.90;;;;;;5034316;28;20183;-76
2022/06/29 03:22:24;;;;;;;49.47;46.53;;;15.90;99.90;;;;;;5033885;28;20199;-77
2022/06/29 03:24:50;;;;;;;36.30;34.20;;;15.90;99.90;;;;;;5034152;28;20712;-77
2022/06/29 03:27:16;;;;;;;30.63;28.07;;;15.90;99.90;;;;;;5032111;28;20274;-77
2022/06/29 03:29:42;;;;;;;53.40;50.47;;;15.90;99.90;;;;;;5032629;28;20274;-77
2022/06/29 03:32:08;;;;;;;64.13;60.77;;;15.90;99.90;;;;;;5032609;28;20230;-77
2022/06/29 03:34:34;;;;;;;57.00;53.83;;;15.90;99.90;;;;;;5033748;28;20194;-77
2022/06/29 03:37:00;;;;;;;40.43;37.90;;;15.90;99.90;;;;;;5033008;28;20183;-77
2022/06/29 03:39:25;;;;;;;28.67;27.07;;;15.90;99.90;;;;;;5032413;28;20183;-77
2022/06/29 03:41:51;;;;;;;25.90;24.13;;;16.00;99.90;;;;;;5032405;28;20286;-77
2022/06/29 03:44:17;;;;;;;19.43;17.70;;;15.90;99.90;;;;;;5034068;28;20179;-77
2022/06/29 03:46:43;;;;;;;34.90;32.67;;;15.90;99.90;;;;;;5031871;28;20193;-78
2022/06/29 03:49:08;;;;;;;28.77;25.43;;;15.90;99.90;;;;;;5033115;28;20187;-77
2022/06/29 03:51:34;;;;;;;21.73;20.30;;;15.90;99.90;;;;;;5034132;28;20203;-77
2022/06/29 03:54:00;;;;;;;17.77;16.47;;;16.00;99.90;;;;;;5033190;28;20213;-77
2022/06/29 03:56:26;;;;;;;21.53;20.10;;;16.00;99.90;;;;;;5033500;28;20265;-76
2022/06/29 03:58:51;;;;;;;22.63;21.13;;;16.00;99.90;;;;;;5032884;28;20202;-76
2022/06/29 04:01:17;;;;;;;27.63;26.10;;;16.00;99.90;;;;;;5032338;28;20747;-77
2022/06/29 04:03:43;;;;;;;20.57;19.37;;;16.10;99.90;;;;;;5033313;28;20774;-77
2022/06/29 04:06:10;;;;;;;23.50;21.87;;;16.10;99.90;;;;;;5032142;28;20179;-77
2022/06/29 04:08:36;;;;;;;27.30;25.47;;;16.20;99.90;;;;;;5031238;28;20191;-77
2022/06/29 04:11:03;;;;;;;30.43;28.67;;;16.20;99.90;;;;;;5031941;28;20652;-77
2022/06/29 04:13:29;;;;;;;36.10;33.70;;;16.30;99.90;;;;;;5032705;28;20780;-77
2022/06/29 04:15:54;;;;;;;39.97;37.30;;;16.30;99.90;;;;;;5034722;28;20217;-76
2022/06/29 04:18:20;;;;;;;39.53;36.80;;;16.30;99.90;;;;;;5036556;28;20190;-75
2022/06/29 04:23:30;;;;;;;30.73;28.93;;;16.40;99.90;;;;;;5037565;28;20167;-78
2022/06/29 04:25:56;;;;;;;34.37;32.13;;;16.50;99.90;;;;;;5032614;28;20190;-77
2022/06/29 04:28:22;;;;;;;38.33;36.07;;;16.50;99.90;;;;;;5032942;28;20199;-78
2022/06/29 04:30:48;;;;;;;53.50;50.13;;;16.50;99.90;;;;;;5031674;28;20182;-78
2022/06/29 04:33:13;;;;;;;76.80;72.73;;;16.60;99.90;;;;;;5031689;28;20561;-77
2022/06/29 04:35:39;;;;;;;91.10;86.03;;;16.60;99.90;;;;;;5032588;28;20210;-78
2022/06/29 04:38:05;;;;;;;92.77;87.90;;;16.70;99.90;;;;;;5032312;28;20187;-78
2022/06/29 04:40:31;;;;;;;48.83;46.07;;;16.70;99.90;;;;;;5034053;28;20202;-78
2022/06/29 04:42:56;;;;;;;19.03;17.83;;;16.80;99.90;;;;;;5033873;28;20224;-78
2022/06/29 04:48:06;;;;;;;29.00;27.03;;;16.90;99.90;;;;;;5031970;28;20725;-78
2022/06/29 04:50:32;;;;;;;32.97;30.90;;;17.00;99.90;;;;;;5032687;28;20182;-78
2022/06/29 04:52:58;;;;;;;33.40;31.33;;;17.10;99.90;;;;;;5031754;28;20305;-78
2022/06/29 04:55:25;;;;;;;41.50;39.30;;;17.10;99.90;;;;;;5032400;28;20214;-78
2022/06/29 04:57:51;;;;;;;40.03;37.80;;;17.10;99.90;;;;;;5030404;28;20589;-78
2022/06/29 05:00:17;;;;;;;37.00;35.00;;;17.20;99.90;;;;;;5031209;28;20186;-77
2022/06/29 05:02:43;;;;;;;27.77;26.13;;;17.30;99.90;;;;;;5050102;22;20258;-79
2022/06/29 05:05:09;;;;;;;124.70;118.17;;;17.50;99.90;;;;;;5032488;28;20652;-79
2022/06/29 05:07:35;;;;;;;238.57;226.50;;;17.60;99.90;;;;;;5019542;28;20685;-80
2022/06/29 05:10:01;;;;;;;243.40;230.77;;;17.60;99.90;;;;;;5020924;28;20183;-80
2022/06/29 05:12:26;;;;;;;79.73;75.40;;;17.80;99.90;;;;;;5031932;28;20211;-80
2022/06/29 05:14:52;;;;;;;19.13;17.73;;;18.00;99.90;;;;;;5038268;28;20207;-80
2022/06/29 05:17:18;;;;;;;18.10;16.60;;;18.00;99.90;;;;;;5039874;28;20274;-79
2022/06/29 05:19:44;;;;;;;18.67;17.33;;;18.10;99.90;;;;;;5044439;28;20193;-79
2022/06/29 05:22:10;;;;;;;16.27;15.10;;;18.10;99.90;;;;;;5053053;28;20198;-79
2022/06/29 05:24:36;;;;;;;10.77;9.77;;;18.20;99.90;;;;;;5052615;28;20174;-79
2022/06/29 05:27:02;;;;;;;12.00;11.20;;;18.20;99.90;;;;;;5041997;28;20563;-80
2022/06/29 05:29:27;;;;;;;9.97;9.10;;;18.20;99.90;;;;;;5048050;28;20624;-79
2022/06/29 05:31:53;;;;;;;9.43;8.63;;;18.20;99.90;;;;;;5052925;28;20228;-79
2022/06/29 05:34:19;;;;;;;12.03;9.20;;;18.20;99.90;;;;;;5048405;28;20182;-79
2022/06/29 05:36:45;;;;;;;12.67;10.23;;;18.20;99.90;;;;;;5037289;28;20281;-79
2022/06/29 05:39:11;;;;;;;8.30;7.73;;;18.30;99.90;;;;;;5035859;28;20183;-78
2022/06/29 05:41:37;;;;;;;14.40;13.00;;;18.50;99.90;;;;;;5033511;28;20206;-78
2022/06/29 05:44:04;;;;;;;34.17;32.20;;;18.70;99.90;;;;;;5040048;28;20183;-78
2022/06/29 05:46:33;;;;;;;27.30;25.73;;;18.90;99.90;;;;;;5051440;28;20274;-78
2022/06/29 05:48:59;;;;;;;11.73;10.70;;;19.00;99.90;;;;;;5035883;28;20587;-78
2022/06/29 05:51:25;;;;;;;9.67;8.97;;;19.10;99.90;;;;;;5037182;28;20203;-78
2022/06/29 05:53:51;;;;;;;8.90;8.30;;;19.30;99.90;;;;;;5036797;28;20181;-78
2022/06/29 05:56:17;;;;;;;14.37;13.27;;;19.40;99.90;;;;;;5047881;28;20682;-78
2022/06/29 05:58:43;;;;;;;38.77;36.60;;;19.60;99.90;;;;;;5037887;28;20186;-78
2022/06/29 06:01:09;;;;;;;129.80;123.07;;;19.70;99.90;;;;;;5036180;28;20213;-78
2022/06/29 06:03:36;;;;;;;261.83;248.27;;;19.70;99.90;;;;;;5039670;28;20186;-78
2022/06/29 06:06:02;;;;;;;312.53;295.87;;;19.80;99.90;;;;;;5055758;28;20178;-78
2022/06/29 06:08:28;;;;;;;212.17;200.70;;;20.00;99.90;;;;;;5049047;28;20221;-78
2022/06/29 06:10:54;;;;;;;91.13;86.40;;;20.20;99.90;;;;;;5050332;28;20455;-77
2022/06/29 06:13:20;;;;;;;38.57;36.17;;;20.30;99.90;;;;;;5050349;28;20588;-78
2022/06/29 06:15:47;;;;;;;28.93;27.03;;;20.30;99.90;;;;;;5038717;28;20308;-79
2022/06/29 06:18:13;;;;;;;12.97;12.17;;;20.30;99.90;;;;;;5035710;28;20186;-79
2022/06/29 06:20:39;;;;;;;10.20;9.40;;;20.40;99.90;;;;;;5037735;28;20567;-79
2022/06/29 06:23:05;;;;;;;22.97;20.50;;;20.40;99.90;;;;;;5035546;28;20202;-79
2022/06/29 06:25:31;;;;;;;15.33;13.90;;;20.50;99.90;;;;;;5035509;28;20187;-78
2022/06/29 06:27:57;;;;;;;26.30;23.60;;;20.50;99.90;;;;;;5034843;28;20175;-79
2022/06/29 06:30:23;;;;;;;39.73;37.33;;;20.60;99.90;;;;;;5036470;28;20240;-78
2022/06/29 06:32:49;;;;;;;64.40;61.00;;;20.60;99.90;;;;;;5051886;28;20270;-79
2022/06/29 06:35:15;;;;;;;67.13;63.47;;;20.70;99.90;;;;;;5047242;28;20199;-78
2022/06/29 06:37:43;;;;;;;145.10;137.60;;;20.80;99.90;;;;;;5043723;28;20187;-79
2022/06/29 06:42:54;;;;;;;195.83;185.73;;;21.20;99.90;;;;;;5054443;28;20202;-79
2022/06/29 06:45:19;;;;;;;231.70;219.97;;;21.40;99.90;;;;;;5041979;28;20186;-80
2022/06/29 06:47:45;;;;;;;246.48;233.75;;;21.40;99.90;;;;;;5041581;28;20217;-80
2022/06/29 06:50:11;;;;;;;243.32;230.18;;;21.40;99.90;;;;;;5039808;28;20183;-80
2022/06/29 06:52:37;;;;;;;225.23;213.73;;;21.40;99.90;;;;;;5037156;28;20207;-80
2022/06/29 06:55:03;;;;;;;163.80;155.40;;;21.40;99.90;;;;;;5034623;28;20206;-80
2022/06/29 06:57:29;;;;;;;142.07;134.55;;;21.50;99.90;;;;;;5036479;28;20183;-78
2022/06/29 06:59:54;;;;;;;47.05;44.50;;;21.60;99.90;;;;;;5047265;28;20190;-77
2022/06/29 07:02:21;;;;;;;39.95;37.67;;;21.90;99.90;;;;;;5047094;28;20211;-78
2022/06/29 07:04:47;;;;;;;31.40;29.67;;;22.00;99.90;;;;;;5049230;28;20198;-78
2022/06/29 07:07:13;;;;;;;26.92;25.25;;;22.10;99.90;;;;;;5044448;28;20265;-79
2022/06/29 07:09:39;;;;;;;26.52;24.75;;;22.10;99.90;;;;;;5043625;28;20183;-79
2022/06/29 07:12:05;;;;;;;17.52;16.48;;;22.30;99.90;;;;;;5045641;28;20202;-79
2022/06/29 07:14:31;;;;;;;12.07;11.15;;;22.40;99.90;;;;;;5044098;28;20203;-79
2022/06/29 07:16:57;;;;;;;10.70;9.68;;;22.50;99.90;;;;;;5036701;28;20625;-78
2022/06/29 07:19:23;;;;;;;7.15;6.63;;;22.70;99.90;;;;;;5036895;28;20588;-78
2022/06/29 07:21:49;;;;;;;8.40;7.35;;;22.90;99.90;;;;;;5036559;28;20266;-77
2022/06/29 07:24:15;;;;;;;8.23;7.63;;;23.20;99.90;;;;;;5037246;28;20183;-78
2022/06/29 07:26:41;;;;;;;8.73;7.93;;;23.40;99.90;;;;;;5036210;28;20592;-80
2022/06/29 07:29:07;;;;;;;8.63;7.88;;;23.50;99.90;;;;;;5037079;28;20175;-78
2022/06/29 07:31:32;;;;;;;8.57;7.78;;;23.60;99.90;;;;;;5040346;28;20202;-79
2022/06/29 07:33:58;;;;;;;7.43;6.82;;;23.60;99.90;;;;;;5040362;28;20528;-79
2022/06/29 07:36:25;;;;;;;7.70;6.95;;;23.60;99.90;;;;;;5039466;28;20219;-79
2022/06/29 07:38:52;;;;;;;10.45;7.63;;;23.70;99.90;;;;;;5041861;28;20236;-78
2022/06/29 07:41:18;;;;;;;7.75;7.15;;;23.80;99.90;;;;;;5050552;28;20281;-78
2022/06/29 07:43:44;;;;;;;9.40;8.80;;;23.90;99.90;;;;;;5052443;28;20245;-79
2022/06/29 07:46:10;;;;;;;15.60;14.70;;;24.10;99.90;;;;;;5038671;28;20538;-78
2022/06/29 07:48:36;;;;;;;12.65;11.95;;;24.50;99.90;;;;;;5036326;28;20186;-79
2022/06/29 07:51:02;;;;;;;9.45;8.70;;;25.00;99.90;;;;;;5039055;28;20194;-78
2022/06/29 07:53:29;;;;;;;13.10;12.10;;;25.50;99.90;;;;;;5037565;28;20182;-79
2022/06/29 07:55:54;;;;;;;41.85;39.45;;;26.00;99.90;;;;;;5041590;28;20206;-78
2022/06/29 07:58:21;;;;;;;56.30;53.20;;;26.20;99.90;;;;;;5043108;28;20175;-79
2022/06/29 08:00:47;;;;;;;40.53;38.38;;;26.20;99.90;;;;;;5037623;28;20190;-79
2022/06/29 08:03:13;;;;;;;41.45;39.40;;;26.50;99.90;;;;;;5048490;28;20218;-78
2022/06/29 08:05:39;;;;;;;48.28;45.88;;;26.40;99.90;;;;;;5045101;28;20195;-78
2022/06/29 08:08:06;;;;;;;46.20;43.83;;;26.70;99.90;;;;;;5042390;28;20187;-79
2022/06/29 08:10:32;;;;;;;43.03;40.90;;;26.80;99.90;;;;;;5037426;28;20222;-79
2022/06/29 08:12:59;;;;;;;53.58;47.75;;;27.00;99.90;;;;;;5036822;28;20225;-78
2022/06/29 08:15:26;;;;;;;11.68;10.98;;;27.80;99.90;;;;;;5037159;28;20211;-79
2022/06/29 08:17:52;;;;;;;10.20;9.45;;;27.90;99.90;;;;;;5036031;28;20666;-79
2022/06/29 08:20:19;;;;;;;13.50;12.60;;;28.10;99.90;;;;;;5036877;28;20645;-79
2022/06/29 08:22:45;;;;;;;8.30;7.70;;;28.50;99.90;;;;;;5035962;28;20202;-79
2022/06/29 08:25:12;;;;;;;6.05;5.63;;;28.70;99.90;;;;;;5048421;28;20183;-78
2022/06/29 08:27:38;;;;;;;6.22;5.72;;;29.00;99.90;;;;;;5047713;28;20183;-79
2022/06/29 08:30:06;;;;;;;10.05;9.45;;;29.30;99.90;;;;;;5049763;28;20207;-79
2022/06/29 08:32:32;;;;;;;20.25;19.17;;;29.50;99.90;;;;;;5045161;28;20349;-79
2022/06/29 08:35:00;;;;;;;36.10;34.30;;;29.60;99.90;;;;;;5036139;28;20679;-79
2022/06/29 08:37:28;;;;;;;39.13;37.10;;;29.80;99.90;;;;;;5035465;28;20179;-79
2022/06/29 08:39:54;;;;;;;29.33;27.75;;;29.70;99.90;;;;;;5035920;28;20179;-79
2022/06/29 08:42:24;;;;;;;23.92;22.65;;;30.00;99.90;;;;;;5036757;28;20616;-79
2022/06/29 08:44:50;;;;;;;27.55;25.85;;;30.10;99.90;;;;;;5037628;28;20229;-79
2022/06/29 08:47:17;;;;;;;34.67;32.90;;;30.00;99.90;;;;;;5040480;28;20175;-79
2022/06/29 08:49:44;;;;;;;37.13;35.10;;;29.40;99.90;;;;;;5055306;28;20194;-79
2022/06/29 08:52:11;;;;;;;31.23;29.27;;;29.30;99.90;;;;;;5056764;28;20218;-79
2022/06/29 08:54:46;;;;;;;32.55;30.90;;;29.50;99.90;;;;;;5050844;28;20570;-80
2022/06/29 08:57:12;;;;;;;31.63;30.08;;;30.00;99.90;;;;;;5036769;28;20182;-79
2022/06/29 08:59:38;;;;;;;45.72;43.25;;;30.40;99.90;;;;;;5036068;28;20190;-79
2022/06/29 09:02:04;;;;;;;52.47;49.90;;;30.20;99.90;;;;;;5035951;28;20225;-79
2022/06/29 09:04:30;;;;;;;62.00;59.00;;;30.20;99.90;;;;;;5036405;28;20237;-79
2022/06/29 09:06:56;;;;;;;60.97;57.80;;;30.40;99.90;;;;;;5034003;28;20599;-79
2022/06/29 09:09:23;;;;;;;77.60;73.85;;;30.80;99.90;;;;;;5034181;28;20179;-80
2022/06/29 09:11:53;;;;;;;46.08;43.80;;;30.80;99.90;;;;;;5033977;28;20679;-79
2022/06/29 09:14:24;;;;;;;9.52;9.02;;;31.60;98.40;;;;;;5034596;28;20187;-79
2022/06/29 09:17:03;;;;;;;10.20;9.70;;;31.50;97.50;;;;;;5035022;28;20718;-79
2022/06/29 09:19:44;;;;;;;7.55;6.88;;;31.40;97.20;;;;;;5035367;28;20191;-79
2022/06/29 09:22:10;;;;;;;4.88;4.57;;;32.10;96.80;;;;;;5034252;28;20202;-79
2022/06/29 09:24:36;;;;;;;6.07;5.68;;;32.50;95.60;;;;;;5039660;28;20178;-79
2022/06/29 09:27:08;;;;;;;6.55;6.07;;;31.90;94.60;;;;;;5035517;28;20237;-80
2022/06/29 09:29:36;;;;;;;7.90;7.20;;;32.00;94.60;;;;;;5035862;28;20191;-79
2022/06/29 09:32:08;;;;;;;6.40;5.90;;;31.30;94.80;;;;;;5037254;28;20195;-79
2022/06/29 09:34:40;;;;;;;7.20;6.70;;;30.60;95.10;;;;;;5041198;28;20187;-79
2022/06/29 09:37:09;;;;;;;7.95;7.45;;;31.10;95.30;;;;;;5038743;28;20205;-79
2022/06/29 09:39:41;;;;;;;4.95;4.57;;;31.10;94.70;;;;;;5041855;28;20194;-79
2022/06/29 09:42:10;;;;;;;6.20;5.28;;;30.60;96.00;;;;;;5037902;28;20690;-79
2022/06/29 09:44:36;;;;;;;6.47;6.05;;;30.80;96.00;;;;;;5035598;28;20185;-79
2022/06/29 09:47:08;;;;;;;6.93;6.32;;;30.50;96.20;;;;;;5042750;28;20669;-79
2022/06/29 09:49:36;;;;;;;5.28;4.72;;;30.60;95.80;;;;;;5041277;28;20203;-80
2022/06/29 09:52:04;;;;;;;5.85;5.15;;;30.50;95.80;;;;;;5035889;28;20202;-79
2022/06/29 09:54:37;;;;;;;6.22;5.90;;;30.60;94.90;;;;;;5034079;28;20182;-79
2022/06/29 09:57:05;;;;;;;7.43;6.97;;;30.60;95.10;;;;;;5032575;28;20187;-79
2022/06/29 10:02:36;;;;;;;7.68;7.13;;;31.80;94.10;;;;;;5033431;28;20226;-79
2022/06/29 10:05:05;;;;;;;6.30;5.80;;;32.30;92.10;;;;;;5034087;28;20195;-79
2022/06/29 10:07:33;;;;;;;6.68;6.15;;;31.60;92.40;;;;;;5037664;28;20282;-78
2022/06/29 10:10:00;;;;;;;8.38;7.72;;;31.20;92.40;;;;;;5035668;28;20183;-79
2022/06/29 10:16:05;;;;;;;7.40;6.70;;;32.30;91.90;;;;;;5021814;28;20218;-79
2022/06/29 10:18:34;;;;;;;9.27;5.25;;;32.40;92.20;;;;;;5017919;28;20187;-79
2022/06/29 10:21:01;;;;;;;4.43;4.13;;;32.20;90.80;;;;;;5034106;28;20566;-79
2022/06/29 10:23:49;;;;;;;5.40;4.78;;;32.30;90.60;;;;;;5032979;28;20179;-79
2022/06/29 10:26:35;;;;;;;4.90;4.30;;;33.00;88.70;;;;;;5038315;28;20664;-78
2022/06/29 10:29:09;;;;;;;4.63;4.32;;;32.40;89.80;;;;;;5045380;28;20179;-79
2022/06/29 10:32:04;;;;;;;8.27;5.60;;;32.90;89.00;;;;;;5052285;28;20274;-79
2022/06/29 10:37:05;;;;;;;11.18;10.57;;;34.10;83.90;;;;;;5032058;28;20211;-79
2022/06/29 10:39:43;;;;;;;12.00;11.23;;;33.60;83.90;;;;;;5032606;28;20201;-79
2022/06/29 10:45:13;;;;;;;8.77;8.18;;;33.90;84.00;;;;;;5035821;28;20191;-79
2022/06/29 10:47:40;;;;;;;16.33;15.23;;;34.80;82.00;;;;;;5040335;28;20240;-79
2022/06/29 10:50:16;;;;;;;16.85;15.75;;;35.30;80.40;;;;;;5034523;28;20245;-79
2022/06/29 10:52:42;;;;;;;6.32;5.72;;;34.70;81.90;;;;;;5034892;28;20209;-80
2022/06/29 10:55:08;;;;;;;13.02;12.00;;;33.10;84.00;;;;;;5033800;28;20206;-80
2022/06/29 10:57:36;;;;;;;15.20;14.23;;;31.80;87.80;;;;;;5033644;28;20179;-79
2022/06/29 11:00:09;;;;;;;5.78;5.28;;;31.10;89.80;;;;;;5032751;28;20782;-80
2022/06/29 11:02:38;;;;;;;5.22;4.70;;;30.70;91.30;;;;;;5044011;22;20226;-76
2022/06/29 11:05:05;;;;;;;5.38;4.82;;;30.80;89.50;;;;;;5009697;28;20183;-76
2022/06/29 11:12:59;;;;;;;4.50;4.20;;;31.60;90.90;;;;;;5023602;28;20199;-76
2022/06/29 11:15:42;;;;;;;5.85;5.43;;;32.50;86.90;;;;;;5029540;28;20215;-76
2022/06/29 11:18:12;;;;;;;15.77;14.93;;;32.90;86.50;;;;;;5029716;28;20202;-77
2022/06/29 11:20:39;;;;;;;15.35;14.15;;;33.20;82.40;;;;;;5030458;28;20238;-78
2022/06/29 11:23:16;;;;;;;10.88;9.95;;;33.00;82.30;;;;;;5029128;28;20195;-76
2022/06/29 11:25:46;;;;;;;10.75;9.93;;;32.80;82.60;;;;;;5032964;28;20183;-76
2022/06/29 11:28:12;;;;;;;11.13;10.23;;;32.10;86.40;;;;;;5033160;28;20250;-77
2022/06/29 11:30:38;;;;;;;13.18;12.30;;;32.10;86.40;;;;;;5032784;28;20647;-76
2022/06/29 11:33:10;;;;;;;15.38;14.27;;;32.10;84.50;;;;;;5033691;28;20257;-76
2022/06/29 11:35:39;;;;;;;15.15;14.00;;;32.70;82.60;;;;;;5035758;28;20722;-77
2022/06/29 11:38:07;;;;;;;11.88;11.00;;;33.10;83.70;;;;;;5033415;28;20171;-77
2022/06/29 11:40:35;;;;;;;9.18;8.27;;;33.80;81.90;;;;;;5035610;28;20182;-75
2022/06/29 11:43:08;;;;;;;7.97;6.82;;;34.00;81.90;;;;;;5032693;28;20191;-76
2022/06/29 11:45:44;;;;;;;6.10;5.63;;;33.80;83.10;;;;;;5033752;28;20183;-76
2022/06/29 11:48:18;;;;;;;8.05;7.50;;;33.30;81.20;;;;;;5033228;28;20268;-77
2022/06/29 11:50:46;;;;;;;12.10;11.10;;;33.30;82.00;;;;;;5033745;28;20179;-77
2022/06/29 11:53:13;;;;;;;12.50;11.60;;;34.60;81.40;;;;;;5033717;28;20207;-77
2022/06/29 11:55:44;;;;;;;72.28;68.53;;;35.30;79.50;;;;;;5033793;28;20709;-76
2022/06/29 11:58:16;;;;;;;236.52;224.80;;;36.20;75.00;;;;;;5032714;28;20655;-76
2022/06/29 12:00:43;;;;;;;263.60;250.30;;;37.20;72.70;;;;;;5033576;28;20623;-77
2022/06/29 12:03:13;;;;;;;267.13;254.02;;;37.70;68.70;;;;;;5032430;28;20214;-77
2022/06/29 12:05:57;;;;;;;147.45;140.05;;;37.90;67.90;;;;;;5034747;28;20211;-77
2022/06/29 12:08:23;;;;;;;192.40;182.95;;;37.80;65.20;;;;;;5034219;28;20293;-77
2022/06/29 12:10:49;;;;;;;291.83;277.17;;;36.50;67.70;;;;;;5034971;28;20206;-77
2022/06/29 12:13:15;;;;;;;273.23;259.45;;;34.70;71.80;;;;;;5034339;28;20671;-78
2022/06/29 12:15:41;;;;;;;74.43;70.55;;;33.30;76.80;;;;;;5033910;28;20297;-77
2022/06/29 12:18:07;;;;;;;8.57;7.95;;;32.60;78.80;;;;;;5032644;28;20188;-77
2022/06/29 12:20:33;;;;;;;7.20;6.55;;;31.90;81.30;;;;;;5032037;28;20201;-77
2022/06/29 12:22:58;;;;;;;20.95;19.83;;;31.50;83.20;;;;;;5031633;28;20214;-76
2022/06/29 12:25:24;;;;;;;15.93;14.98;;;31.40;84.40;;;;;;5033064;28;20663;-76
2022/06/29 12:27:50;;;;;;;25.25;23.70;;;31.40;84.10;;;;;;5031198;28;20306;-77
2022/06/29 12:30:16;;;;;;;17.40;16.05;;;31.30;84.80;;;;;;5031654;28;20273;-77
2022/06/29 12:32:42;;;;;;;18.60;17.60;;;31.30;84.80;;;;;;5033065;28;20295;-76
2022/06/29 12:35:08;;;;;;;16.70;15.73;;;32.00;82.50;;;;;;5033821;28;20211;-76
2022/06/29 12:37:34;;;;;;;11.02;10.32;;;33.10;79.70;;;;;;5035090;28;20663;-77
2022/06/29 12:40:00;;;;;;;8.00;7.40;;;33.50;79.30;;;;;;5032271;28;20175;-77
2022/06/29 12:42:25;;;;;;;6.93;6.35;;;33.40;77.60;;;;;;5035689;28;20199;-76
2022/06/29 12:44:51;;;;;;;14.38;13.45;;;34.00;76.10;;;;;;5034283;28;20214;-77
2022/06/29 12:47:17;;;;;;;28.48;26.40;;;34.60;73.80;;;;;;5030756;28;20706;-77
2022/06/29 12:49:43;;;;;;;14.88;13.82;;;33.80;72.40;;;;;;5031592;28;20265;-76
2022/06/29 12:52:09;;;;;;;8.27;7.78;;;33.40;75.80;;;;;;5032472;28;20207;-77
2022/06/29 12:54:35;;;;;;;8.77;8.18;;;33.10;77.30;;;;;;5031320;28;20305;-77
2022/06/29 12:57:00;;;;;;;10.52;9.73;;;33.30;77.00;;;;;;5030700;28;20301;-77
2022/06/29 12:59:26;;;;;;;14.35;13.57;;;33.60;76.40;;;;;;5031236;28;20261;-77